Time;durP1;ratioP1;P1;durP2;ratioP2;P2;SDS_P1;SDS_P2;PMS_P1;PMS_P2;Temp;Humidity;BMP_temperature;BMP_pressure;BME280_temperature;BME280_humidity;BME280_pressure;Samples;Min_cycle;Max_cycle;Signal;HPM_P1;HPM_P2
2023/02/24 00:01:36;;;;;;;15.70;6.22;;;0.40;99.90;;;;;;4937980;29;20466;-78
2023/02/24 00:04:02;;;;;;;18.08;6.75;;;0.30;99.90;;;;;;4936821;29;20480;-79
2023/02/24 00:06:35;;;;;;;11.32;6.18;;;0.30;99.90;;;;;;4937771;29;20043;-79
2023/02/24 00:09:04;;;;;;;13.68;5.88;;;0.20;99.90;;;;;;4937183;29;20136;-78
2023/02/24 00:11:32;;;;;;;16.92;6.50;;;0.20;99.90;;;;;;4936718;29;20054;-78
2023/02/24 00:13:58;;;;;;;12.65;6.10;;;0.20;99.90;;;;;;4939005;29;20044;-79
2023/02/24 00:16:25;;;;;;;14.95;7.53;;;0.20;99.90;;;;;;4940151;29;20054;-80
2023/02/24 00:18:52;;;;;;;11.05;5.88;;;0.20;99.90;;;;;;4938973;29;20383;-79
2023/02/24 00:21:19;;;;;;;17.67;7.43;;;0.20;99.90;;;;;;4940031;29;20130;-79
2023/02/24 00:23:46;;;;;;;12.45;6.03;;;0.10;99.90;;;;;;4939435;29;20051;-79
2023/02/24 00:26:13;;;;;;;12.95;6.00;;;0.10;99.90;;;;;;4937940;29;20039;-78
2023/02/24 00:28:39;;;;;;;15.90;7.20;;;0.00;99.90;;;;;;4939871;29;20039;-79
2023/02/24 00:31:06;;;;;;;18.83;8.20;;;0.00;99.90;;;;;;4937941;29;20058;-79
2023/02/24 00:33:33;;;;;;;15.73;6.35;;;0.00;99.90;;;;;;4939491;29;20111;-79
2023/02/24 00:35:59;;;;;;;16.70;6.85;;;0.00;99.90;;;;;;4939836;29;20058;-79
2023/02/24 00:38:30;;;;;;;15.38;6.13;;;-0.10;99.90;;;;;;4938756;29;20043;-79
2023/02/24 00:40:57;;;;;;;13.98;7.05;;;-0.10;99.90;;;;;;4938565;29;20075;-79
2023/02/24 00:43:23;;;;;;;16.05;7.45;;;-0.20;99.90;;;;;;4938273;29;20051;-78
2023/02/24 00:45:50;;;;;;;18.63;6.97;;;-0.20;99.90;;;;;;4937377;29;20118;-79
2023/02/24 00:48:19;;;;;;;13.23;6.97;;;-0.20;99.90;;;;;;4938456;29;20048;-79
2023/02/24 00:50:46;;;;;;;12.55;6.50;;;-0.20;99.90;;;;;;4938397;29;20043;-79
2023/02/24 00:53:13;;;;;;;16.92;6.97;;;-0.30;99.90;;;;;;4939181;29;20039;-78
2023/02/24 00:55:39;;;;;;;14.77;6.20;;;-0.20;99.90;;;;;;4938504;29;20061;-79
2023/02/24 00:58:06;;;;;;;13.02;6.30;;;-0.30;99.90;;;;;;4938291;29;20035;-79
2023/02/24 01:00:35;;;;;;;18.13;8.18;;;-0.30;99.90;;;;;;4939241;29;20049;-79
2023/02/24 01:03:02;;;;;;;17.73;6.82;;;-0.20;99.90;;;;;;4938014;29;20400;-79
2023/02/24 01:05:29;;;;;;;17.23;8.93;;;-0.20;99.90;;;;;;4921154;29;20467;-78
2023/02/24 01:07:55;;;;;;;14.75;9.05;;;-0.20;99.90;;;;;;4939484;29;20063;-78
2023/02/24 01:10:22;;;;;;;18.92;7.60;;;-0.30;99.90;;;;;;4938195;29;20048;-79
2023/02/24 01:12:49;;;;;;;17.25;7.88;;;-0.20;99.90;;;;;;4936595;29;20474;-79
2023/02/24 01:15:15;;;;;;;18.42;8.10;;;-0.20;99.90;;;;;;4939149;29;20106;-78
2023/02/24 01:17:42;;;;;;;19.83;8.45;;;-0.20;99.90;;;;;;4936929;29;20055;-79
2023/02/24 01:20:15;;;;;;;18.38;9.60;;;-0.20;99.90;;;;;;4937931;29;20052;-78
2023/02/24 01:22:42;;;;;;;12.25;6.55;;;-0.30;99.90;;;;;;4938565;29;20084;-79
2023/02/24 01:25:09;;;;;;;16.33;6.10;;;-0.20;99.90;;;;;;4938043;29;20055;-79
2023/02/24 01:27:41;;;;;;;16.30;6.43;;;-0.20;99.90;;;;;;4938042;29;20058;-79
2023/02/24 01:30:12;;;;;;;16.83;8.20;;;-0.20;99.90;;;;;;4937945;29;20039;-79
2023/02/24 01:32:39;;;;;;;15.95;6.25;;;-0.30;99.90;;;;;;4936425;29;20351;-78
2023/02/24 01:35:06;;;;;;;16.13;8.10;;;-0.30;99.90;;;;;;4938795;29;20398;-79
2023/02/24 01:37:33;;;;;;;14.48;5.97;;;-0.30;99.90;;;;;;4936822;29;20443;-79
2023/02/24 01:40:09;;;;;;;14.23;7.60;;;-0.30;99.90;;;;;;4938871;29;20048;-79
2023/02/24 01:42:37;;;;;;;14.82;5.60;;;-0.30;99.90;;;;;;4938428;29;20114;-80
2023/02/24 01:45:05;;;;;;;15.93;7.85;;;-0.30;99.90;;;;;;4936690;29;20044;-79
2023/02/24 01:47:32;;;;;;;12.05;6.20;;;-0.30;99.90;;;;;;4937436;29;20143;-80
2023/02/24 01:49:58;;;;;;;15.27;6.43;;;-0.30;99.90;;;;;;4938485;29;20067;-79
2023/02/24 01:52:25;;;;;;;16.17;6.35;;;-0.30;99.90;;;;;;4937046;29;20078;-80
2023/02/24 01:54:53;;;;;;;16.63;7.18;;;-0.30;99.90;;;;;;4937174;29;20071;-80
2023/02/24 01:57:20;;;;;;;16.08;6.60;;;-0.30;99.90;;;;;;4936288;29;20055;-81
2023/02/24 01:59:48;;;;;;;15.52;8.77;;;-0.30;99.90;;;;;;4937443;29;20043;-81
2023/02/24 02:02:15;;;;;;;18.13;6.90;;;-0.30;99.90;;;;;;4936867;29;20106;-79
2023/02/24 02:04:42;;;;;;;12.75;7.05;;;-0.30;99.90;;;;;;4936293;29;20451;-80
2023/02/24 02:07:10;;;;;;;15.05;6.38;;;-0.30;99.90;;;;;;4938214;29;20130;-80
2023/02/24 02:09:36;;;;;;;13.68;6.07;;;-0.30;99.90;;;;;;4937326;29;20036;-79
2023/02/24 02:12:03;;;;;;;16.48;6.88;;;-0.20;99.90;;;;;;4934753;29;20472;-79
2023/02/24 02:14:29;;;;;;;17.52;7.30;;;-0.20;99.90;;;;;;4919893;29;20050;-79
2023/02/24 02:16:56;;;;;;;14.95;7.00;;;-0.20;99.90;;;;;;4937930;29;20518;-80
2023/02/24 02:19:23;;;;;;;13.95;6.72;;;-0.20;99.90;;;;;;4935874;29;20047;-79
2023/02/24 02:21:50;;;;;;;18.55;6.70;;;-0.20;99.90;;;;;;4937900;29;20059;-80
2023/02/24 02:24:16;;;;;;;25.20;9.35;;;-0.20;99.90;;;;;;4936423;29;20043;-80
2023/02/24 02:26:43;;;;;;;13.18;7.07;;;-0.20;99.90;;;;;;4937624;29;20044;-79
2023/02/24 02:29:10;;;;;;;16.38;6.57;;;-0.20;99.90;;;;;;4921189;29;20061;-80
2023/02/24 02:31:37;;;;;;;16.80;6.93;;;-0.30;99.90;;;;;;4935811;29;20054;-80
2023/02/24 02:34:07;;;;;;;13.95;7.07;;;-0.40;99.90;;;;;;4936425;29;20040;-79
2023/02/24 02:36:33;;;;;;;;;;;-0.40;99.90;;;;;;4938051;29;20377;-79
2023/02/24 02:39:02;;;;;;;11.23;5.95;;;-0.40;99.90;;;;;;4951639;28;19926;-79
2023/02/24 02:41:28;;;;;;;13.20;5.03;;;-0.50;99.90;;;;;;4937613;29;20422;-79
2023/02/24 02:43:55;;;;;;;23.58;7.65;;;-0.50;99.90;;;;;;4936320;29;20052;-79
2023/02/24 02:46:33;;;;;;;13.45;5.57;;;-0.50;99.90;;;;;;4920705;29;20051;-79
2023/02/24 02:49:01;;;;;;;12.63;6.70;;;-0.50;99.90;;;;;;4936517;29;20466;-79
2023/02/24 02:51:28;;;;;;;12.95;6.47;;;-0.50;99.90;;;;;;4935322;29;20113;-78
2023/02/24 02:53:54;;;;;;;14.98;6.00;;;-0.50;99.90;;;;;;4936238;29;20135;-79
2023/02/24 02:56:21;;;;;;;12.82;7.45;;;-0.50;99.90;;;;;;4936314;29;20043;-79
2023/02/24 02:58:48;;;;;;;14.55;6.28;;;-0.50;99.90;;;;;;4936188;29;20075;-79
2023/02/24 03:01:17;;;;;;;12.85;6.45;;;-0.50;99.90;;;;;;4936416;29;20478;-79
2023/02/24 03:03:45;;;;;;;15.40;7.10;;;-0.50;99.90;;;;;;4936056;29;20051;-78
2023/02/24 03:06:12;;;;;;;13.45;6.22;;;-0.50;99.90;;;;;;4935168;29;20055;-79
2023/02/24 03:08:39;;;;;;;19.85;7.40;;;-0.50;99.90;;;;;;4919797;29;20390;-80
2023/02/24 03:11:06;;;;;;;20.58;6.90;;;-0.40;99.90;;;;;;4936245;29;20048;-79
2023/02/24 03:13:33;;;;;;;12.10;6.38;;;-0.40;99.90;;;;;;4935909;29;20064;-80
2023/02/24 03:16:00;;;;;;;11.10;5.68;;;-0.40;99.90;;;;;;4936206;29;20143;-78
2023/02/24 03:18:27;;;;;;;16.13;6.45;;;-0.40;99.90;;;;;;4936244;29;20044;-79
2023/02/24 03:20:56;;;;;;;15.45;6.30;;;-0.50;99.90;;;;;;4937028;29;20047;-79
2023/02/24 03:23:25;;;;;;;15.65;6.53;;;-0.50;99.90;;;;;;4935814;29;20122;-79
2023/02/24 03:25:52;;;;;;;10.10;5.32;;;-0.50;99.90;;;;;;4935092;29;20048;-78
2023/02/24 03:28:21;;;;;;;17.70;7.13;;;-0.50;99.90;;;;;;4920532;29;20048;-81
2023/02/24 03:30:49;;;;;;;10.07;5.70;;;-0.50;99.90;;;;;;4934978;29;20467;-79
2023/02/24 03:33:16;;;;;;;16.88;7.05;;;-0.50;99.90;;;;;;4935470;29;20538;-79
2023/02/24 03:35:43;;;;;;;13.10;6.68;;;-0.50;99.90;;;;;;4920423;29;20419;-78
2023/02/24 03:38:11;;;;;;;13.23;6.57;;;-0.50;99.90;;;;;;4934913;29;20051;-79
2023/02/24 03:40:42;;;;;;;13.05;5.70;;;-0.60;99.90;;;;;;4936870;29;20473;-80
2023/02/24 03:43:12;;;;;;;16.40;7.57;;;-0.60;99.90;;;;;;4935563;29;20079;-80
2023/02/24 03:45:42;;;;;;;;;;;-0.60;99.90;;;;;;4935412;29;20068;-79
2023/02/24 03:48:08;;;;;;;8.95;4.70;;;-0.60;99.90;;;;;;4919947;29;20026;-78
2023/02/24 03:50:36;;;;;;;14.60;6.28;;;-0.60;99.90;;;;;;4934958;29;20075;-78
2023/02/24 03:53:11;;;;;;;12.50;5.93;;;-0.50;99.90;;;;;;4935667;29;20046;-79
2023/02/24 03:55:38;;;;;;;10.82;5.82;;;-0.50;99.90;;;;;;4935778;29;20064;-80
2023/02/24 03:58:05;;;;;;;11.63;6.78;;;-0.50;99.90;;;;;;4935851;29;20422;-79
2023/02/24 04:00:40;;;;;;;13.25;6.43;;;-0.40;99.90;;;;;;4936033;29;20055;-79
2023/02/24 04:03:06;;;;;;;14.70;6.82;;;-0.40;99.90;;;;;;4919744;29;20062;-79
2023/02/24 04:05:35;;;;;;;14.27;5.55;;;-0.40;99.90;;;;;;4935441;29;20062;-79
2023/02/24 04:08:03;;;;;;;17.05;6.82;;;-0.40;99.90;;;;;;4936887;29;20051;-79
2023/02/24 04:10:30;;;;;;;10.73;6.05;;;-0.40;99.90;;;;;;4935693;29;20468;-79
2023/02/24 04:13:00;;;;;;;11.27;6.00;;;-0.40;99.90;;;;;;4919696;29;20058;-79
2023/02/24 04:15:28;;;;;;;13.45;5.63;;;-0.40;99.90;;;;;;4935824;29;20146;-79
2023/02/24 04:17:56;;;;;;;11.77;6.00;;;-0.40;99.90;;;;;;4934687;29;20106;-79
2023/02/24 04:20:28;;;;;;;11.98;6.55;;;-0.40;99.90;;;;;;4939010;29;20099;-79
2023/02/24 04:22:58;;;;;;;19.42;6.35;;;-0.40;99.90;;;;;;4923339;29;20077;-80
2023/02/24 04:25:25;;;;;;;14.82;5.90;;;-0.30;99.90;;;;;;4922112;29;20074;-79
2023/02/24 04:27:53;;;;;;;10.98;5.47;;;-0.40;99.90;;;;;;4938871;29;20475;-79
2023/02/24 04:30:20;;;;;;;14.23;7.47;;;-0.30;99.90;;;;;;4939929;29;20122;-79
2023/02/24 04:32:46;;;;;;;16.88;6.47;;;-0.30;99.90;;;;;;4937383;29;20067;-79
2023/02/24 04:35:14;;;;;;;13.95;5.57;;;-0.30;99.90;;;;;;4938803;29;20103;-80
2023/02/24 04:37:44;;;;;;;12.63;6.22;;;-0.30;99.90;;;;;;4922571;29;20441;-80
2023/02/24 04:40:11;;;;;;;9.88;6.15;;;-0.20;99.90;;;;;;4938617;29;20542;-79
2023/02/24 04:42:45;;;;;;;11.45;5.20;;;-0.10;99.90;;;;;;4938438;29;20075;-79
2023/02/24 04:45:12;;;;;;;15.32;5.10;;;-0.10;99.90;;;;;;4937617;29;20047;-80
2023/02/24 04:47:41;;;;;;;13.38;5.32;;;0.00;99.90;;;;;;4938365;29;20051;-80
2023/02/24 04:50:10;;;;;;;11.13;5.47;;;0.00;99.90;;;;;;4939436;29;20048;-80
2023/02/24 04:52:37;;;;;;;15.95;5.82;;;0.20;99.90;;;;;;4937038;29;20348;-80
2023/02/24 04:55:08;;;;;;;12.07;5.90;;;0.40;99.90;;;;;;4939381;29;20054;-79
2023/02/24 04:57:36;;;;;;;7.88;4.82;;;0.50;99.90;;;;;;4938403;29;20071;-80
2023/02/24 05:00:11;;;;;;;18.55;8.25;;;0.60;99.90;;;;;;4939421;29;20387;-80
2023/02/24 05:02:38;;;;;;;18.05;7.45;;;0.70;99.90;;;;;;4938232;29;20066;-79
2023/02/24 05:05:06;;;;;;;10.18;5.68;;;0.90;99.90;;;;;;4937275;29;20099;-79
2023/02/24 05:07:33;;;;;;;13.07;5.82;;;0.90;99.90;;;;;;4939033;29;20074;-80
2023/02/24 05:10:00;;;;;;;14.25;6.22;;;1.00;99.90;;;;;;4939249;29;20170;-79
2023/02/24 05:12:28;;;;;;;13.57;6.32;;;1.10;99.90;;;;;;4936989;29;20047;-79
2023/02/24 05:14:54;;;;;;;17.00;6.22;;;1.20;99.90;;;;;;4938146;29;20043;-79
2023/02/24 05:17:21;;;;;;;13.60;6.07;;;1.20;99.90;;;;;;4937932;29;20043;-79
2023/02/24 05:22:33;;;;;;;15.82;5.90;;;1.40;99.90;;;;;;4938501;29;20052;-79
2023/02/24 05:25:00;;;;;;;14.55;5.50;;;1.50;99.90;;;;;;4937858;29;20043;-79
2023/02/24 05:27:27;;;;;;;18.85;7.00;;;1.50;99.90;;;;;;4938886;29;20040;-79
2023/02/24 05:29:54;;;;;;;18.50;6.40;;;1.50;99.90;;;;;;4938030;29;20471;-79
2023/02/24 05:32:21;;;;;;;13.63;6.30;;;1.60;99.90;;;;;;4937089;29;20574;-79
2023/02/24 05:34:49;;;;;;;12.82;5.95;;;1.70;99.90;;;;;;4938721;29;20056;-79
2023/02/24 05:37:17;;;;;;;15.63;6.13;;;1.70;99.90;;;;;;4937650;29;20056;-79
2023/02/24 05:39:43;;;;;;;14.73;6.30;;;1.80;99.90;;;;;;4938601;29;20044;-79
2023/02/24 05:42:10;;;;;;;9.88;5.57;;;1.80;99.90;;;;;;4938090;29;20178;-80
2023/02/24 05:44:37;;;;;;;19.85;7.63;;;1.90;99.90;;;;;;4937427;29;20359;-80
2023/02/24 05:47:04;;;;;;;15.73;6.80;;;1.90;99.90;;;;;;4937549;29;20071;-80
2023/02/24 05:49:32;;;;;;;15.65;5.90;;;1.90;99.90;;;;;;4938520;29;20418;-79
2023/02/24 05:52:00;;;;;;;11.40;6.03;;;1.90;99.90;;;;;;4937086;29;20127;-80
2023/02/24 05:54:28;;;;;;;11.40;5.55;;;1.90;99.90;;;;;;4938529;29;20486;-79
2023/02/24 05:56:59;;;;;;;16.55;6.50;;;2.00;99.90;;;;;;4937475;29;20054;-80
2023/02/24 05:59:31;;;;;;;13.60;5.82;;;2.00;99.90;;;;;;4937307;29;20118;-80
2023/02/24 06:01:59;;;;;;;17.15;5.63;;;2.10;99.90;;;;;;4937999;29;20036;-79
2023/02/24 06:04:38;;;;;;;11.77;6.43;;;2.10;99.90;;;;;;4936347;29;20469;-79
2023/02/24 06:07:05;;;;;;;11.55;5.63;;;2.10;99.90;;;;;;4937399;29;20475;-78
2023/02/24 06:09:31;;;;;;;10.02;5.85;;;2.20;99.90;;;;;;4937323;29;20054;-78
2023/02/24 06:11:58;;;;;;;10.98;5.75;;;2.20;99.90;;;;;;4936771;29;20055;-78
2023/02/24 06:14:25;;;;;;;11.05;5.18;;;2.30;99.90;;;;;;4938119;29;20519;-79
2023/02/24 06:16:51;;;;;;;7.85;4.88;;;2.30;99.90;;;;;;4937977;29;20035;-78
2023/02/24 06:19:19;;;;;;;12.52;5.22;;;2.30;99.90;;;;;;4936079;29;20035;-79
2023/02/24 06:21:46;;;;;;;15.98;6.65;;;2.40;99.90;;;;;;4937369;29;20074;-79
2023/02/24 06:24:17;;;;;;;10.25;5.20;;;2.40;99.90;;;;;;4936881;29;20118;-78
2023/02/24 06:26:45;;;;;;;11.45;5.18;;;2.40;99.90;;;;;;4937062;29;20060;-79
2023/02/24 06:29:12;;;;;;;10.32;5.40;;;2.40;99.90;;;;;;4938141;29;20040;-79
2023/02/24 06:31:40;;;;;;;13.27;4.97;;;2.40;99.90;;;;;;4937357;29;20058;-78
2023/02/24 06:34:09;;;;;;;13.57;5.93;;;2.50;99.90;;;;;;4940503;29;20044;-79
2023/02/24 06:36:36;;;;;;;13.20;4.63;;;2.50;99.90;;;;;;4941023;29;20040;-79
2023/02/24 06:39:03;;;;;;;13.82;4.28;;;2.40;99.90;;;;;;4937488;29;20471;-79
2023/02/24 06:41:30;;;;;;;8.93;4.63;;;2.40;99.90;;;;;;4937906;29;20371;-78
2023/02/24 06:43:57;;;;;;;11.70;4.68;;;2.40;99.90;;;;;;4935347;29;20111;-79
2023/02/24 06:46:24;;;;;;;12.18;5.13;;;2.30;99.90;;;;;;4937421;29;20047;-79
2023/02/24 06:48:51;;;;;;;11.45;4.70;;;2.30;99.90;;;;;;4936665;29;20043;-79
2023/02/24 06:51:17;;;;;;;15.70;5.68;;;2.40;99.90;;;;;;4935733;29;20055;-78
2023/02/24 06:53:44;;;;;;;10.60;4.75;;;2.40;99.90;;;;;;4937188;29;20050;-78
2023/02/24 06:56:14;;;;;;;10.65;4.55;;;2.40;99.90;;;;;;4937534;29;20458;-78
2023/02/24 06:58:42;;;;;;;12.82;5.30;;;2.50;99.90;;;;;;4936655;29;20086;-79
2023/02/24 07:01:10;;;;;;;17.25;5.32;;;2.40;99.90;;;;;;4939124;29;20468;-78
2023/02/24 07:03:46;;;;;;;11.13;4.90;;;2.40;99.90;;;;;;4938586;29;20047;-79
2023/02/24 07:06:22;;;;;;;7.95;4.72;;;2.50;99.90;;;;;;4937352;29;20048;-79
2023/02/24 07:08:49;;;;;;;10.43;4.93;;;2.50;99.90;;;;;;4936508;29;20569;-78
2023/02/24 07:11:19;;;;;;;10.50;5.10;;;2.50;99.90;;;;;;4935484;29;20039;-78
2023/02/24 07:13:46;;;;;;;9.82;3.95;;;2.50;99.90;;;;;;4936855;29;20091;-78
2023/02/24 07:16:15;;;;;;;13.15;4.60;;;2.50;99.90;;;;;;4936153;29;20467;-78
2023/02/24 07:18:42;;;;;;;15.18;4.68;;;2.50;99.90;;;;;;4936289;29;20054;-78
2023/02/24 07:21:12;;;;;;;13.85;5.07;;;2.50;99.90;;;;;;4936360;29;20450;-79
2023/02/24 07:23:39;;;;;;;12.05;6.35;;;2.50;99.90;;;;;;4935892;29;20482;-79
2023/02/24 07:26:08;;;;;;;10.35;4.38;;;2.60;99.90;;;;;;4936226;29;20044;-78
2023/02/24 07:28:38;;;;;;;11.95;4.25;;;2.60;99.90;;;;;;4937118;29;20502;-78
2023/02/24 07:31:07;;;;;;;;;;;2.50;99.90;;;;;;4936476;29;20059;-78
2023/02/24 07:33:35;;;;;;;11.90;4.03;;;2.60;99.90;;;;;;4936828;29;19934;-79
2023/02/24 07:36:07;;;;;;;10.32;4.03;;;2.60;99.90;;;;;;4937141;29;20047;-79
2023/02/24 07:38:34;;;;;;;9.27;4.53;;;2.60;99.90;;;;;;4935290;29;20430;-79
2023/02/24 07:41:01;;;;;;;8.95;3.50;;;2.70;99.90;;;;;;4936961;29;20056;-78
2023/02/24 07:43:28;;;;;;;10.15;3.97;;;2.80;99.90;;;;;;4951619;28;20394;-78
2023/02/24 07:45:56;;;;;;;7.50;4.00;;;2.80;99.90;;;;;;4951069;28;20044;-78
2023/02/24 07:48:24;;;;;;;8.13;3.93;;;2.80;99.90;;;;;;4937948;29;20387;-79
2023/02/24 07:50:51;;;;;;;16.33;5.38;;;2.90;99.90;;;;;;4953141;29;20211;-79
2023/02/24 07:53:18;;;;;;;9.40;4.03;;;2.90;99.90;;;;;;4938074;29;20437;-80
2023/02/24 07:55:45;;;;;;;9.38;4.03;;;2.90;99.90;;;;;;4940944;29;20039;-79
2023/02/24 07:58:11;;;;;;;10.75;5.05;;;3.00;99.90;;;;;;4939814;29;20577;-79
2023/02/24 08:00:58;;;;;;;13.27;5.10;;;3.10;99.90;;;;;;4940539;29;20043;-80
2023/02/24 08:03:26;;;;;;;7.85;3.90;;;3.20;99.90;;;;;;4940096;29;20055;-79
2023/02/24 08:05:52;;;;;;;5.32;3.70;;;3.30;99.90;;;;;;4938503;29;20379;-79
2023/02/24 08:08:19;;;;;;;7.75;4.15;;;3.40;99.90;;;;;;4939419;29;20126;-80
2023/02/24 08:10:46;;;;;;;12.25;4.47;;;3.50;99.90;;;;;;4938439;29;20046;-79
2023/02/24 08:13:13;;;;;;;10.68;3.95;;;3.60;99.90;;;;;;4939875;29;20477;-81
2023/02/24 08:15:44;;;;;;;9.07;4.30;;;3.70;99.90;;;;;;4939587;29;20055;-79
2023/02/24 08:18:11;;;;;;;10.73;4.88;;;3.70;99.90;;;;;;4939259;29;20044;-79
2023/02/24 08:20:51;;;;;;;11.45;5.28;;;3.70;99.90;;;;;;4940250;29;20430;-79
2023/02/24 08:23:17;;;;;;;;;;;3.80;99.90;;;;;;4939351;29;20482;-79
2023/02/24 08:28:30;;;;;;;8.43;3.60;;;3.90;99.90;;;;;;4940682;29;20040;-79
2023/02/24 08:30:57;;;;;;;8.32;4.97;;;3.90;99.90;;;;;;4939341;29;20048;-79
2023/02/24 08:33:28;;;;;;;14.45;5.47;;;3.90;99.90;;;;;;4939102;29;20044;-79
2023/02/24 08:36:05;;;;;;;8.73;3.40;;;4.00;99.90;;;;;;4940107;29;20044;-79
2023/02/24 08:38:38;;;;;;;10.23;4.05;;;4.10;99.90;;;;;;4938822;29;20131;-79
2023/02/24 08:41:05;;;;;;;10.13;4.55;;;4.20;99.90;;;;;;4939974;29;20106;-79
2023/02/24 08:43:32;;;;;;;15.90;4.15;;;4.30;99.90;;;;;;4939599;29;20043;-79
2023/02/24 08:46:02;;;;;;;15.82;4.55;;;4.40;99.90;;;;;;4938045;29;20446;-79
2023/02/24 08:48:35;;;;;;;;;;;4.40;99.90;;;;;;4939711;29;20139;-79
2023/02/24 08:51:03;;;;;;;9.00;4.07;;;4.50;99.90;;;;;;4937172;28;19935;-78
2023/02/24 08:53:32;;;;;;;17.73;5.18;;;4.70;99.90;;;;;;4920682;29;20036;-80
2023/02/24 08:56:08;;;;;;;6.80;4.10;;;4.70;99.90;;;;;;4921696;29;20064;-79
2023/02/24 08:58:34;;;;;;;11.57;4.30;;;4.70;99.90;;;;;;4924581;29;20048;-80
2023/02/24 09:01:02;;;;;;;12.13;5.07;;;4.80;99.90;;;;;;4920637;29;20051;-80
2023/02/24 09:03:32;;;;;;;12.80;4.63;;;4.90;99.90;;;;;;4920651;29;20063;-80
2023/02/24 09:05:59;;;;;;;9.30;4.70;;;5.00;99.90;;;;;;4918388;29;20047;-80
2023/02/24 09:08:31;;;;;;;22.00;5.30;;;5.20;99.90;;;;;;4928026;29;20047;-81
2023/02/24 09:10:58;;;;;;;12.20;4.15;;;5.30;99.90;;;;;;4938805;29;20122;-79
2023/02/24 09:13:31;;;;;;;11.20;4.60;;;5.40;99.90;;;;;;4938688;29;20044;-79
2023/02/24 09:15:58;;;;;;;8.95;4.78;;;5.40;99.90;;;;;;4938529;29;20478;-79
2023/02/24 09:18:29;;;;;;;12.57;4.63;;;5.50;99.90;;;;;;4938335;29;20486;-80
2023/02/24 09:20:55;;;;;;;10.57;4.25;;;5.60;99.90;;;;;;4939272;29;20052;-79
2023/02/24 09:23:28;;;;;;;10.73;5.93;;;5.70;99.90;;;;;;4941643;29;20130;-79
2023/02/24 09:25:55;;;;;;;11.00;5.10;;;5.70;99.90;;;;;;4938887;29;20051;-81
2023/02/24 09:28:23;;;;;;;10.20;4.15;;;5.80;99.90;;;;;;4939457;29;20085;-80
2023/02/24 09:30:52;;;;;;;12.32;4.95;;;5.80;99.90;;;;;;4938089;29;20044;-80
2023/02/24 09:33:21;;;;;;;8.20;4.82;;;5.80;99.90;;;;;;4938822;29;20032;-81
2023/02/24 09:35:48;;;;;;;14.57;4.93;;;5.90;99.90;;;;;;4939720;29;20130;-81
2023/02/24 09:38:15;;;;;;;14.80;5.53;;;6.10;99.90;;;;;;4936204;29;20386;-80
2023/02/24 09:40:47;;;;;;;9.98;4.60;;;6.10;99.90;;;;;;4937729;29;20371;-79
2023/02/24 09:43:16;;;;;;;7.40;4.25;;;6.30;99.90;;;;;;4919949;29;20058;-79
2023/02/24 09:45:44;;;;;;;12.63;4.63;;;6.30;99.90;;;;;;4925680;29;20542;-78
2023/02/24 09:48:11;;;;;;;12.23;5.32;;;6.30;99.90;;;;;;4912902;29;20390;-78
2023/02/24 09:53:48;;;;;;;12.75;5.40;;;6.60;99.90;;;;;;4954012;28;20050;-79
2023/02/24 09:56:15;;;;;;;15.05;6.00;;;6.70;99.90;;;;;;4948618;28;20064;-79
2023/02/24 09:58:48;;;;;;;13.20;5.70;;;6.70;99.90;;;;;;4958341;29;20103;-79
2023/02/24 10:01:20;;;;;;;12.18;5.30;;;6.70;99.90;;;;;;4941311;29;20048;-80
2023/02/24 10:03:48;;;;;;;15.18;5.68;;;6.60;99.90;;;;;;4940065;29;20052;-80
2023/02/24 10:06:19;;;;;;;9.77;5.75;;;6.70;99.90;;;;;;4936836;29;20048;-79
2023/02/24 10:08:45;;;;;;;10.68;5.90;;;6.80;99.90;;;;;;4945881;29;20138;-79
2023/02/24 10:11:12;;;;;;;13.13;5.10;;;6.90;99.90;;;;;;4929306;29;20751;-79
2023/02/24 10:13:45;;;;;;;13.20;5.80;;;6.90;99.90;;;;;;4934249;29;20074;-80
2023/02/24 10:16:12;;;;;;;11.85;5.05;;;7.10;99.90;;;;;;4937421;29;20035;-80
2023/02/24 10:18:38;;;;;;;11.13;5.50;;;7.20;99.90;;;;;;4937357;29;20043;-80
2023/02/24 10:21:05;;;;;;;11.98;6.30;;;7.20;99.90;;;;;;4937306;29;20431;-79
2023/02/24 10:23:32;;;;;;;14.15;6.40;;;7.30;99.90;;;;;;4936951;29;20075;-77
2023/02/24 10:28:44;;;;;;;12.07;4.82;;;7.40;99.90;;;;;;4937608;29;20055;-78
2023/02/24 10:31:23;;;;;;;10.18;5.53;;;7.40;99.90;;;;;;4936727;29;20040;-78
2023/02/24 10:33:52;;;;;;;11.35;5.47;;;7.30;99.90;;;;;;4937942;29;20047;-78
2023/02/24 10:36:21;;;;;;;11.23;5.60;;;7.20;99.90;;;;;;4937662;29;20039;-78
2023/02/24 10:38:49;;;;;;;11.23;5.75;;;7.20;99.90;;;;;;4937256;29;20425;-78
2023/02/24 10:41:16;;;;;;;11.05;5.60;;;7.10;99.90;;;;;;4937833;29;20048;-78
2023/02/24 10:43:45;;;;;;;12.88;5.88;;;7.20;99.90;;;;;;4936582;29;20397;-78
2023/02/24 10:46:15;;;;;;;12.95;5.82;;;7.10;99.90;;;;;;4935612;29;20055;-78
2023/02/24 10:48:43;;;;;;;21.83;7.43;;;7.20;99.90;;;;;;4937320;29;20035;-77
2023/02/24 10:51:09;;;;;;;12.05;6.13;;;7.40;99.90;;;;;;4935765;29;20067;-78
2023/02/24 10:53:36;;;;;;;9.10;5.15;;;7.40;99.90;;;;;;4927595;29;20043;-78
2023/02/24 10:56:25;;;;;;;12.85;5.88;;;7.50;99.90;;;;;;4937739;29;20043;-79
2023/02/24 11:01:19;;;;;;;;;;;7.90;99.90;;;;;;4918320;29;20090;-79
2023/02/24 11:03:59;;;;;;;11.85;5.85;;;7.90;99.90;;;;;;4918082;29;19986;-78
2023/02/24 11:06:40;;;;;;;16.80;6.10;;;8.00;99.90;;;;;;4933195;29;20367;-78
2023/02/24 11:09:18;;;;;;;15.52;5.15;;;7.90;99.90;;;;;;4950054;29;20442;-79
2023/02/24 11:17:16;;;;;;;12.85;5.43;;;8.00;99.90;;;;;;4933168;29;20152;-78
2023/02/24 11:19:43;;;;;;;9.23;5.40;;;8.20;99.90;;;;;;4937797;29;20047;-77
2023/02/24 11:22:09;;;;;;;13.25;6.40;;;8.20;99.90;;;;;;4937023;29;20067;-78
2023/02/24 11:24:37;;;;;;;11.13;5.22;;;8.20;99.90;;;;;;4935682;29;20058;-77
2023/02/24 11:27:03;;;;;;;12.95;5.50;;;8.20;99.90;;;;;;4936679;29;20090;-79
2023/02/24 11:29:30;;;;;;;12.35;5.72;;;8.20;99.90;;;;;;4919892;29;20063;-77
2023/02/24 11:31:57;;;;;;;9.38;5.60;;;8.30;99.90;;;;;;4920548;29;20050;-78
2023/02/24 11:34:27;;;;;;;15.43;8.23;;;8.10;99.90;;;;;;4922020;29;20055;-78
2023/02/24 11:36:55;;;;;;;13.55;6.47;;;8.00;99.90;;;;;;4921665;29;20040;-79
2023/02/24 11:39:21;;;;;;;13.52;6.80;;;7.90;99.90;;;;;;4938473;29;20047;-78
2023/02/24 11:41:51;;;;;;;13.55;6.70;;;7.90;99.90;;;;;;4940445;29;20056;-78
2023/02/24 11:44:18;;;;;;;15.45;6.80;;;7.80;99.90;;;;;;4940038;29;20102;-78
2023/02/24 11:46:45;;;;;;;12.32;5.40;;;7.80;99.90;;;;;;4940351;29;20064;-79
2023/02/24 11:49:13;;;;;;;16.17;6.97;;;7.80;99.90;;;;;;4937823;29;20131;-77
2023/02/24 11:51:40;;;;;;;14.95;7.45;;;7.80;99.90;;;;;;4938175;29;20040;-79
2023/02/24 11:54:06;;;;;;;13.23;6.97;;;7.80;99.90;;;;;;4938139;29;20452;-77
2023/02/24 11:56:34;;;;;;;20.08;7.50;;;7.90;99.90;;;;;;4933917;29;20047;-78
2023/02/24 11:59:00;;;;;;;19.65;6.95;;;8.10;99.90;;;;;;4934667;29;20456;-79
2023/02/24 12:01:27;;;;;;;14.43;7.63;;;8.30;99.90;;;;;;4922121;29;20466;-79
2023/02/24 12:03:54;;;;;;;13.05;7.03;;;8.50;99.90;;;;;;4918678;29;20076;-80
2023/02/24 12:06:23;;;;;;;16.98;7.68;;;8.50;99.90;;;;;;4920518;29;20100;-79
2023/02/24 12:08:51;;;;;;;15.05;7.57;;;8.40;99.90;;;;;;4920617;29;20116;-79
2023/02/24 12:11:18;;;;;;;12.00;7.20;;;8.40;99.90;;;;;;4919304;29;20048;-78
2023/02/24 12:13:45;;;;;;;13.13;7.43;;;8.40;99.90;;;;;;4920500;29;20064;-79
2023/02/24 12:16:11;;;;;;;13.48;7.05;;;8.60;99.90;;;;;;4919872;29;20044;-81
2023/02/24 12:18:39;;;;;;;15.65;7.68;;;8.80;99.90;;;;;;4919561;29;20055;-79
2023/02/24 12:21:06;;;;;;;13.88;7.63;;;8.90;99.90;;;;;;4919508;29;20062;-78
2023/02/24 12:23:33;;;;;;;15.00;7.18;;;9.10;99.90;;;;;;4920517;29;20074;-79
2023/02/24 12:26:00;;;;;;;16.13;7.38;;;9.20;99.90;;;;;;4924374;29;20039;-78
2023/02/24 12:28:27;;;;;;;16.02;7.55;;;9.20;99.90;;;;;;4931653;29;20103;-79
2023/02/24 12:30:56;;;;;;;15.85;8.13;;;9.40;99.90;;;;;;4931228;29;20043;-80
2023/02/24 12:33:23;;;;;;;13.88;7.80;;;9.40;99.90;;;;;;4919875;29;20055;-80
2023/02/24 12:35:51;;;;;;;15.18;7.55;;;9.40;99.90;;;;;;4942927;29;20044;-80
2023/02/24 12:38:18;;;;;;;10.57;7.13;;;9.30;99.90;;;;;;4921873;29;20043;-79
2023/02/24 12:40:44;;;;;;;11.52;6.47;;;9.40;99.90;;;;;;4927242;29;20059;-80
2023/02/24 12:43:11;;;;;;;10.55;6.93;;;9.50;99.90;;;;;;4932831;29;20039;-79
2023/02/24 12:45:38;;;;;;;23.27;9.02;;;9.50;99.90;;;;;;4927649;29;20048;-81
2023/02/24 12:48:05;;;;;;;14.50;7.63;;;9.50;99.90;;;;;;4898172;29;1105390;-79
2023/02/24 12:50:32;;;;;;;14.73;6.82;;;9.60;99.90;;;;;;4933116;29;20063;-79
2023/02/24 12:52:59;;;;;;;12.13;5.80;;;9.80;99.90;;;;;;4920938;29;20044;-79
2023/02/24 12:55:26;;;;;;;15.88;6.30;;;10.00;99.90;;;;;;4920161;29;20095;-78
2023/02/24 12:57:53;;;;;;;11.07;6.55;;;10.50;99.90;;;;;;4918345;29;20048;-78
2023/02/24 13:00:19;;;;;;;13.75;7.30;;;11.10;99.90;;;;;;4920703;29;20044;-78
2023/02/24 13:02:46;;;;;;;15.57;6.88;;;11.50;99.90;;;;;;4919464;29;20051;-78
2023/02/24 13:05:12;;;;;;;14.93;6.28;;;11.40;99.90;;;;;;4919494;29;20041;-78
2023/02/24 13:07:39;;;;;;;14.32;5.20;;;11.40;99.90;;;;;;4920501;29;20459;-79
2023/02/24 13:10:06;;;;;;;12.98;5.40;;;11.70;99.90;;;;;;4920593;29;20467;-79